createdAt,value
2017-12-13T00:00:38.628Z,94.79
2017-12-13T00:01:38.563Z,94.22
2017-12-13T00:02:38.498Z,93.94
2017-12-13T00:03:38.433Z,93.47
2017-12-13T00:04:38.365Z,93.56
2017-12-13T00:05:38.294Z,93.28
2017-12-13T00:06:38.229Z,92.80
2017-12-13T00:07:38.166Z,91.86
2017-12-13T00:08:38.096Z,92.52
2017-12-13T00:09:38.035Z,92.33
2017-12-13T00:10:37.964Z,92.80
2017-12-13T00:11:37.904Z,92.90
2017-12-13T00:12:37.831Z,92.43
2017-12-13T00:13:37.770Z,91.77
2017-12-13T00:14:37.705Z,91.58
2017-12-13T00:15:37.632Z,90.91
2017-12-13T00:16:37.567Z,90.63
2017-12-13T00:17:37.501Z,91.10
2017-12-13T00:18:37.439Z,92.05
2017-12-13T00:19:37.376Z,91.58
2017-12-13T00:20:37.305Z,92.52
2017-12-13T00:21:37.242Z,91.77
2017-12-13T00:22:37.172Z,92.52
2017-12-13T00:23:37.109Z,92.52
2017-12-13T00:24:37.043Z,91.86
2017-12-13T00:25:36.976Z,92.05
2017-12-13T00:26:36.909Z,92.52
2017-12-13T00:27:36.837Z,91.96
2017-12-13T00:28:36.772Z,92.14
2017-12-13T00:29:36.705Z,91.96
2017-12-13T00:30:36.646Z,92.05
2017-12-13T00:31:36.579Z,92.14
2017-12-13T00:32:36.512Z,92.33
2017-12-13T00:33:36.444Z,92.71
2017-12-13T00:34:36.423Z,93.47
2017-12-13T00:35:36.308Z,93.28
2017-12-13T00:36:36.240Z,93.28
2017-12-13T00:37:36.182Z,93.56
2017-12-13T00:38:36.113Z,93.37
2017-12-13T00:39:36.049Z,93.66
2017-12-13T00:40:35.976Z,93.32
2017-12-13T00:41:35.908Z,93.51
2017-12-13T00:42:35.846Z,93.51
2017-12-13T00:43:35.778Z,94.08
2017-12-13T00:44:35.717Z,94.08
2017-12-13T00:45:35.647Z,94.08
2017-12-13T00:46:35.583Z,94.27
2017-12-13T00:47:35.512Z,94.74
2017-12-13T00:48:35.445Z,94.56
2017-12-13T00:49:35.384Z,94.56
2017-12-13T00:50:35.317Z,94.84
2017-12-13T00:51:35.252Z,94.84
2017-12-13T00:52:35.185Z,94.74
2017-12-13T00:53:35.119Z,95.31
2017-12-13T00:54:35.052Z,95.03
2017-12-13T00:55:34.985Z,94.56
2017-12-13T00:56:34.920Z,95.03
2017-12-13T00:57:34.853Z,94.27
2017-12-13T00:58:34.779Z,94.84
2017-12-13T00:59:34.716Z,95.21
2017-12-13T01:00:34.649Z,94.84
2017-12-13T01:01:34.587Z,94.56
2017-12-13T01:02:34.521Z,95.12
2017-12-13T01:03:34.449Z,94.56
2017-12-13T01:04:34.384Z,94.46
2017-12-13T01:05:34.313Z,94.18
2017-12-13T01:06:34.253Z,94.46
2017-12-13T01:07:34.183Z,95.03
2017-12-13T01:08:34.122Z,94.65
2017-12-13T01:09:34.061Z,94.65
2017-12-13T01:10:33.989Z,94.93
2017-12-13T01:11:33.922Z,94.46
2017-12-13T01:12:33.859Z,94.56
2017-12-13T01:13:33.794Z,94.46
2017-12-13T01:14:33.720Z,94.93
2017-12-13T01:15:33.649Z,94.41
2017-12-13T01:16:33.585Z,94.13
2017-12-13T01:17:33.517Z,94.13
2017-12-13T01:18:33.464Z,93.84
2017-12-13T01:19:33.394Z,93.66
2017-12-13T01:20:33.322Z,93.66
2017-12-13T01:21:33.260Z,94.22
2017-12-13T01:22:33.187Z,94.60
2017-12-13T01:23:33.126Z,94.03
2017-12-13T01:24:33.055Z,93.18
2017-12-13T01:25:32.996Z,92.99
2017-12-13T01:26:32.927Z,93.09
2017-12-13T01:27:32.856Z,92.99
2017-12-13T01:28:32.789Z,92.80
2017-12-13T01:29:32.727Z,93.37
2017-12-13T01:30:32.656Z,94.13
2017-12-13T01:31:32.590Z,94.13
2017-12-13T01:32:32.541Z,94.70
2017-12-13T01:33:32.464Z,94.41
2017-12-13T01:34:32.394Z,93.66
2017-12-13T01:35:32.328Z,93.75
2017-12-13T01:36:32.263Z,93.47
2017-12-13T01:37:32.192Z,93.66
2017-12-13T01:38:32.127Z,92.33
2017-12-13T01:39:32.066Z,92.71
2017-12-13T01:40:31.995Z,93.18
2017-12-13T01:41:31.928Z,93.18
2017-12-13T01:42:31.867Z,93.28
2017-12-13T01:43:31.802Z,93.84
2017-12-13T01:44:31.730Z,93.56
2017-12-13T01:45:31.667Z,93.51
2017-12-13T01:46:31.600Z,93.80
2017-12-13T01:47:31.531Z,93.70
2017-12-13T01:48:31.471Z,94.56
2017-12-13T01:49:31.398Z,94.37
2017-12-13T01:50:31.334Z,94.65
2017-12-13T01:51:31.271Z,94.56
2017-12-13T01:52:31.201Z,95.03
2017-12-13T01:53:31.134Z,95.31
2017-12-13T01:54:31.067Z,95.68
2017-12-13T01:55:31.006Z,95.59
2017-12-13T01:56:30.934Z,95.31
2017-12-13T01:57:30.869Z,95.31
2017-12-13T01:58:30.806Z,95.97
2017-12-13T01:59:30.740Z,95.78
2017-12-13T02:00:30.675Z,95.21
2017-12-13T02:01:30.602Z,95.03
2017-12-13T02:02:30.543Z,95.40
2017-12-13T02:03:30.475Z,95.12
2017-12-13T02:04:30.408Z,96.06
2017-12-13T02:05:30.335Z,95.12
2017-12-13T02:06:30.268Z,95.97
2017-12-13T02:07:30.204Z,95.21
2017-12-13T02:08:30.142Z,96.06
2017-12-13T02:09:30.068Z,95.97
2017-12-13T02:10:30.055Z,95.97
2017-12-13T02:11:29.936Z,95.97
2017-12-13T02:12:29.869Z,95.97
2017-12-13T02:13:29.803Z,96.06
2017-12-13T02:14:29.735Z,95.97
2017-12-13T02:15:29.667Z,95.87
2017-12-13T02:16:29.599Z,95.78
2017-12-13T02:17:29.541Z,95.78
2017-12-13T02:18:29.467Z,95.97
2017-12-13T02:19:29.404Z,96.11
2017-12-13T02:20:29.344Z,96.01
2017-12-13T02:21:29.277Z,95.73
2017-12-13T02:22:29.207Z,96.54
2017-12-13T02:23:29.135Z,96.63
2017-12-13T02:24:29.074Z,95.87
2017-12-13T02:25:29.007Z,95.31
2017-12-13T02:26:28.974Z,95.21
2017-12-13T02:27:28.866Z,95.59
2017-12-13T02:28:28.809Z,95.59
2017-12-13T02:29:28.741Z,96.16
2017-12-13T02:30:28.672Z,95.45
2017-12-13T02:31:28.606Z,96.01
2017-12-13T02:32:28.537Z,95.83
2017-12-13T02:33:28.472Z,95.92
2017-12-13T02:34:28.400Z,96.68
2017-12-13T02:35:28.332Z,96.86
2017-12-13T02:36:28.271Z,97.15
2017-12-13T02:37:28.198Z,96.68
2017-12-13T02:38:28.131Z,96.86
2017-12-13T02:39:28.064Z,96.96
2017-12-13T02:40:28.003Z,97.24
2017-12-13T02:41:27.925Z,96.68
2017-12-13T02:42:27.863Z,96.96
2017-12-13T02:43:27.807Z,97.34
2017-12-13T02:44:27.736Z,97.43
2017-12-13T02:45:27.661Z,96.77
2017-12-13T02:46:27.599Z,97.24
2017-12-13T02:47:27.526Z,96.86
2017-12-13T02:48:27.466Z,96.39
2017-12-13T02:49:27.398Z,96.30
2017-12-13T02:50:27.332Z,97.72
2017-12-13T02:51:27.269Z,97.43
2017-12-13T02:52:27.195Z,97.24
2017-12-13T02:53:27.131Z,97.62
2017-12-13T02:54:27.057Z,97.72
2017-12-13T02:55:26.998Z,97.34
2017-12-13T02:56:26.935Z,97.62
2017-12-13T02:57:26.855Z,97.53
2017-12-13T02:58:26.795Z,97.43
2017-12-13T02:59:26.726Z,97.43
2017-12-13T03:00:26.663Z,96.20
2017-12-13T03:01:26.586Z,96.20
2017-12-13T03:02:26.526Z,96.86
2017-12-13T03:03:26.456Z,96.77
2017-12-13T03:04:26.393Z,97.24
2017-12-13T03:05:26.325Z,97.05
2017-12-13T03:06:26.261Z,96.39
2017-12-13T03:07:26.184Z,97.24
2017-12-13T03:08:26.118Z,97.43
2017-12-13T03:09:26.049Z,97.05
2017-12-13T03:10:25.983Z,97.43
2017-12-13T03:11:25.916Z,96.96
2017-12-13T03:12:25.848Z,97.53
2017-12-13T03:13:25.782Z,97.34
2017-12-13T03:14:25.721Z,96.86
2017-12-13T03:15:25.652Z,96.58
2017-12-13T03:16:25.582Z,96.58
2017-12-13T03:17:25.518Z,96.86
2017-12-13T03:18:25.450Z,96.49
2017-12-13T03:19:25.380Z,96.49
2017-12-13T03:20:25.317Z,96.68
2017-12-13T03:21:25.243Z,96.49
2017-12-13T03:22:25.176Z,96.68
2017-12-13T03:23:25.139Z,96.68
2017-12-13T03:24:25.049Z,96.77
2017-12-13T03:25:24.984Z,96.20
2017-12-13T03:26:24.907Z,95.73
2017-12-13T03:27:24.840Z,95.73
2017-12-13T03:28:24.775Z,95.45
2017-12-13T03:29:24.710Z,95.17
2017-12-13T03:30:24.645Z,94.89
2017-12-13T03:31:24.579Z,95.36
2017-12-13T03:32:24.516Z,96.11
2017-12-13T03:33:24.442Z,96.01
2017-12-13T03:34:24.371Z,96.20
2017-12-13T03:35:24.303Z,96.68
2017-12-13T03:36:24.243Z,96.30
2017-12-13T03:37:24.172Z,95.54
2017-12-13T03:38:24.105Z,95.54
2017-12-13T03:39:24.041Z,95.92
2017-12-13T03:40:23.974Z,96.58
2017-12-13T03:41:23.906Z,96.49
2017-12-13T03:42:23.837Z,97.15
2017-12-13T03:43:23.770Z,97.62
2017-12-13T03:44:23.698Z,97.24
2017-12-13T03:45:23.635Z,98.38
2017-12-13T03:46:23.568Z,97.43
2017-12-13T03:47:23.502Z,97.62
2017-12-13T03:48:23.430Z,97.24
2017-12-13T03:49:23.369Z,98.10
2017-12-13T03:50:23.300Z,98.10
2017-12-13T03:51:23.231Z,98.38
2017-12-13T03:52:23.164Z,98.28
2017-12-13T03:53:23.091Z,97.43
2017-12-13T03:54:23.027Z,97.53
2017-12-13T03:55:22.957Z,96.86
2017-12-13T03:56:22.892Z,97.43
2017-12-13T03:57:22.825Z,97.43
2017-12-13T03:58:22.754Z,97.53
2017-12-13T03:59:22.693Z,97.53
2017-12-13T04:00:22.619Z,98.38
2017-12-13T04:01:22.552Z,98.19
2017-12-13T04:02:22.490Z,97.91
2017-12-13T04:03:22.418Z,97.53
2017-12-13T04:04:22.351Z,97.24
2017-12-13T04:05:22.289Z,97.24
2017-12-13T04:06:22.217Z,97.53
2017-12-13T04:07:22.150Z,97.24
2017-12-13T04:08:22.087Z,97.53
2017-12-13T04:09:22.013Z,97.72
2017-12-13T04:10:21.946Z,97.72
2017-12-13T04:11:21.884Z,97.72
2017-12-13T04:12:21.817Z,97.24
2017-12-13T04:13:21.748Z,98.19
2017-12-13T04:14:21.675Z,98.28
2017-12-13T04:15:21.615Z,97.91
2017-12-13T04:16:21.543Z,98.47
2017-12-13T04:17:21.479Z,98.85
2017-12-13T04:18:21.407Z,99.13
2017-12-13T04:19:21.339Z,99.04
2017-12-13T04:20:21.275Z,98.94
2017-12-13T04:21:21.204Z,99.04
2017-12-13T04:22:21.143Z,98.28
2017-12-13T04:23:21.080Z,98.66
2017-12-13T04:24:21.010Z,98.38
2017-12-13T04:25:20.942Z,98.75
2017-12-13T04:26:20.880Z,98.94
2017-12-13T04:27:20.804Z,99.04
2017-12-13T04:28:20.739Z,98.85
2017-12-13T04:29:20.667Z,98.19
2017-12-13T04:30:20.606Z,98.19
2017-12-13T04:31:20.535Z,98.05
2017-12-13T04:32:20.477Z,97.24
2017-12-13T04:33:20.398Z,96.96
2017-12-13T04:34:20.345Z,96.58
2017-12-13T04:35:20.266Z,96.96
2017-12-13T04:36:20.208Z,96.68
2017-12-13T04:37:20.130Z,96.96
2017-12-13T04:38:20.066Z,96.49
2017-12-13T04:39:19.996Z,96.01
2017-12-13T04:40:19.930Z,96.39
2017-12-13T04:41:19.866Z,96.30
2017-12-13T04:42:19.794Z,97.24
2017-12-13T04:43:19.729Z,96.86
2017-12-13T04:44:19.661Z,97.91
2017-12-13T04:45:19.597Z,96.77
2017-12-13T04:46:19.527Z,96.96
2017-12-13T04:47:19.468Z,97.05
2017-12-13T04:48:19.421Z,96.86
2017-12-13T04:49:19.343Z,96.96
2017-12-13T04:50:19.260Z,97.15
2017-12-13T04:51:19.198Z,97.15
2017-12-13T04:52:19.123Z,97.53
2017-12-13T04:53:19.071Z,97.24
2017-12-13T04:54:18.995Z,97.34
2017-12-13T04:55:18.929Z,96.96
2017-12-13T04:56:18.857Z,96.30
2017-12-13T04:57:18.795Z,96.86
2017-12-13T04:58:18.719Z,96.68
2017-12-13T04:59:18.654Z,96.49
2017-12-13T05:00:18.588Z,96.30
2017-12-13T05:01:18.518Z,96.77
2017-12-13T05:02:18.452Z,97.34
2017-12-13T05:03:18.392Z,96.86
2017-12-13T05:04:18.325Z,96.49
2017-12-13T05:05:18.257Z,96.49
2017-12-13T05:06:18.183Z,97.15
2017-12-13T05:07:18.119Z,97.91
2017-12-13T05:08:18.062Z,97.24
2017-12-13T05:09:17.981Z,96.86
2017-12-13T05:10:17.922Z,97.05
2017-12-13T05:11:17.855Z,97.05
2017-12-13T05:12:17.788Z,97.53
2017-12-13T05:13:17.718Z,97.05
2017-12-13T05:14:17.647Z,97.53
2017-12-13T05:15:17.580Z,97.24
2017-12-13T05:16:17.519Z,97.81
2017-12-13T05:17:17.446Z,98.10
2017-12-13T05:18:17.380Z,98.94
2017-12-13T05:19:17.311Z,98.28
2017-12-13T05:20:17.244Z,99.41
2017-12-13T05:21:17.183Z,99.08
2017-12-13T05:22:17.111Z,99.37
2017-12-13T05:23:17.044Z,99.27
2017-12-13T05:24:16.981Z,99.27
2017-12-13T05:25:16.918Z,99.18
2017-12-13T05:26:16.843Z,99.37
2017-12-13T05:27:16.781Z,99.37
2017-12-13T05:28:16.711Z,99.27
2017-12-13T05:29:16.640Z,99.37
2017-12-13T05:30:16.577Z,99.08
2017-12-13T05:31:16.506Z,99.37
2017-12-13T05:32:16.445Z,99.46
2017-12-13T05:33:16.372Z,98.99
2017-12-13T05:34:16.305Z,99.46
2017-12-13T05:35:16.245Z,98.71
2017-12-13T05:36:16.175Z,98.57
2017-12-13T05:37:16.112Z,98.52
2017-12-13T05:38:16.038Z,98.90
2017-12-13T05:39:15.976Z,99.27
2017-12-13T05:40:15.908Z,99.75
2017-12-13T05:41:15.843Z,99.27
2017-12-13T05:42:15.763Z,99.18
2017-12-13T05:43:15.704Z,99.37
2017-12-13T05:44:15.646Z,99.70
2017-12-13T05:45:15.575Z,99.04
2017-12-13T05:46:15.509Z,99.51
2017-12-13T05:47:15.442Z,99.13
2017-12-13T05:48:15.377Z,99.04
2017-12-13T05:49:15.308Z,99.99
2017-12-13T05:50:15.243Z,99.99
2017-12-13T05:51:15.178Z,99.99
2017-12-13T05:52:15.107Z,99.94
2017-12-13T05:53:15.040Z,99.56
2017-12-13T05:54:14.975Z,99.18
2017-12-13T05:55:14.900Z,99.27
2017-12-13T05:56:14.839Z,98.61
2017-12-13T05:57:14.774Z,99.27
2017-12-13T05:58:14.704Z,99.27
2017-12-13T05:59:14.633Z,98.99
2017-12-13T06:00:14.570Z,99.27
2017-12-13T06:01:14.506Z,99.27
2017-12-13T06:02:14.440Z,98.90
2017-12-13T06:03:14.372Z,97.96
2017-12-13T06:04:14.306Z,99.08
2017-12-13T06:05:14.232Z,98.90
2017-12-13T06:06:14.164Z,99.08
2017-12-13T06:07:14.099Z,98.33
2017-12-13T06:08:14.037Z,98.52
2017-12-13T06:09:13.971Z,98.52
2017-12-13T06:10:13.897Z,98.24
2017-12-13T06:11:13.831Z,98.52
2017-12-13T06:12:13.766Z,98.33
2017-12-13T06:13:13.702Z,99.46
2017-12-13T06:14:13.631Z,98.99
2017-12-13T06:15:13.568Z,99.46
2017-12-13T06:16:13.497Z,99.37
2017-12-13T06:17:13.428Z,98.99
2017-12-13T06:18:13.364Z,99.27
2017-12-13T06:19:13.294Z,98.71
2017-12-13T06:20:13.229Z,99.37
2017-12-13T06:21:13.161Z,99.27
2017-12-13T06:22:13.101Z,99.18
2017-12-13T06:23:13.029Z,99.18
2017-12-13T06:24:12.960Z,99.84
2017-12-13T06:25:12.894Z,99.75
2017-12-13T06:26:12.834Z,99.56
2017-12-13T06:27:12.770Z,99.99
2017-12-13T06:28:12.698Z,99.99
2017-12-13T06:29:12.633Z,99.94
2017-12-13T06:30:12.559Z,99.94
2017-12-13T06:31:12.507Z,99.75
2017-12-13T06:32:12.433Z,99.99
2017-12-13T06:33:12.375Z,99.99
2017-12-13T06:34:12.298Z,99.99
2017-12-13T06:35:12.232Z,99.99
2017-12-13T06:36:12.160Z,99.99
2017-12-13T06:37:12.098Z,99.99
2017-12-13T06:38:12.032Z,99.99
2017-12-13T06:39:11.958Z,99.99
2017-12-13T06:40:11.898Z,99.99
2017-12-13T06:41:11.826Z,99.99
2017-12-13T06:42:11.760Z,99.99
2017-12-13T06:43:11.692Z,99.99
2017-12-13T06:44:11.625Z,99.99
2017-12-13T06:45:11.563Z,99.99
2017-12-13T06:46:11.492Z,99.99
2017-12-13T06:47:11.431Z,99.99
2017-12-13T06:48:11.365Z,99.99
2017-12-13T06:49:11.296Z,99.27
2017-12-13T06:50:11.225Z,98.61
2017-12-13T06:51:11.163Z,99.27
2017-12-13T06:52:11.097Z,99.08
2017-12-13T06:53:11.024Z,98.80
2017-12-13T06:54:10.963Z,99.37
2017-12-13T06:55:10.891Z,98.28
2017-12-13T06:56:10.878Z,98.38
2017-12-13T06:57:10.763Z,97.72
2017-12-13T06:58:10.699Z,96.40
2017-12-13T06:59:10.624Z,95.83
2017-12-13T07:00:10.569Z,96.30
2017-12-13T07:01:10.490Z,96.02
2017-12-13T07:02:10.439Z,96.02
2017-12-13T07:03:10.361Z,95.97
2017-12-13T07:04:10.305Z,96.06
2017-12-13T07:05:10.232Z,95.97
2017-12-13T07:06:10.165Z,96.82
2017-12-13T07:07:10.094Z,97.29
2017-12-13T07:08:10.024Z,97.44
2017-12-13T07:09:09.962Z,96.87
2017-12-13T07:10:09.891Z,96.21
2017-12-13T07:11:09.823Z,95.83
2017-12-13T07:12:09.757Z,96.21
2017-12-13T07:13:09.688Z,96.02
2017-12-13T07:14:09.627Z,95.92
2017-12-13T07:15:09.562Z,95.78
2017-12-13T07:16:09.498Z,96.25
2017-12-13T07:17:09.428Z,96.54
2017-12-13T07:18:09.359Z,97.10
2017-12-13T07:19:09.296Z,97.10
2017-12-13T07:20:09.231Z,97.44
2017-12-13T07:21:09.155Z,96.68
2017-12-13T07:22:09.096Z,95.73
2017-12-13T07:23:09.023Z,94.41
2017-12-13T07:24:08.963Z,94.32
2017-12-13T07:25:08.892Z,93.94
2017-12-13T07:26:08.823Z,93.66
2017-12-13T07:27:08.761Z,93.75
2017-12-13T07:28:08.695Z,94.03
2017-12-13T07:29:08.630Z,93.47
2017-12-13T07:30:08.564Z,93.09
2017-12-13T07:31:08.490Z,93.66
2017-12-13T07:32:08.428Z,93.18
2017-12-13T07:33:08.358Z,93.28
2017-12-13T07:34:08.292Z,93.28
2017-12-13T07:35:08.229Z,93.18
2017-12-13T07:36:08.158Z,93.28
2017-12-13T07:37:08.098Z,93.28
2017-12-13T07:38:08.029Z,93.84
2017-12-13T07:39:07.963Z,93.56
2017-12-13T07:40:07.898Z,93.28
2017-12-13T07:41:07.831Z,93.47
2017-12-13T07:42:07.765Z,93.28
2017-12-13T07:43:07.699Z,93.37
2017-12-13T07:44:07.626Z,92.80
2017-12-13T07:45:07.558Z,92.71
2017-12-13T07:46:07.497Z,92.80
2017-12-13T07:47:07.432Z,92.52
2017-12-13T07:48:07.364Z,92.52
2017-12-13T07:49:07.291Z,92.43
2017-12-13T07:50:07.223Z,92.71
2017-12-13T07:51:07.163Z,92.33
2017-12-13T07:52:07.100Z,92.80
2017-12-13T07:53:07.031Z,92.99
2017-12-13T07:54:06.960Z,92.05
2017-12-13T07:55:06.902Z,92.33
2017-12-13T07:56:06.841Z,92.52
2017-12-13T07:57:06.761Z,90.39
2017-12-13T07:58:06.698Z,90.01
2017-12-13T07:59:06.633Z,88.98
2017-12-13T08:00:06.588Z,89.83
2017-12-13T08:01:06.494Z,89.26
2017-12-13T08:02:06.433Z,88.60
2017-12-13T08:03:06.362Z,88.60
2017-12-13T08:04:06.305Z,88.50
2017-12-13T08:05:06.229Z,88.60
2017-12-13T08:06:06.169Z,88.12
2017-12-13T08:07:06.104Z,87.74
2017-12-13T08:08:06.030Z,88.03
2017-12-13T08:09:05.974Z,88.41
2017-12-13T08:10:05.899Z,88.41
2017-12-13T08:11:05.842Z,89.17
2017-12-13T08:12:05.766Z,88.88
2017-12-13T08:13:05.700Z,88.50
2017-12-13T08:14:05.632Z,88.69
2017-12-13T08:15:05.573Z,89.45
2017-12-13T08:16:05.507Z,89.64
2017-12-13T08:17:05.439Z,88.41
2017-12-13T08:18:05.373Z,87.65
2017-12-13T08:19:05.301Z,87.55
2017-12-13T08:20:05.243Z,87.93
2017-12-13T08:21:05.176Z,88.41
2017-12-13T08:22:05.107Z,88.41
2017-12-13T08:23:05.038Z,87.55
2017-12-13T08:24:04.974Z,87.55
2017-12-13T08:25:04.910Z,87.65
2017-12-13T08:26:04.843Z,87.93
2017-12-13T08:27:04.772Z,87.74
2017-12-13T08:28:05.451Z,88.03
2017-12-13T08:29:04.639Z,88.22
2017-12-13T08:30:04.575Z,88.31
2017-12-13T08:31:04.526Z,88.69
2017-12-13T08:32:04.446Z,88.12
2017-12-13T08:33:04.379Z,88.41
2017-12-13T08:34:04.315Z,88.03
2017-12-13T08:35:04.247Z,88.12
2017-12-13T08:36:04.183Z,88.22
2017-12-13T08:37:04.118Z,88.69
2017-12-13T08:38:04.045Z,88.69
2017-12-13T08:39:03.983Z,87.93
2017-12-13T08:40:03.915Z,88.12
2017-12-13T08:41:03.849Z,87.93
2017-12-13T08:42:03.781Z,88.41
2017-12-13T08:43:03.735Z,88.69
2017-12-13T08:44:03.650Z,88.88
2017-12-13T08:45:03.583Z,88.41
2017-12-13T08:46:03.521Z,88.41
2017-12-13T08:47:03.458Z,88.60
2017-12-13T08:48:03.386Z,88.88
2017-12-13T08:49:03.318Z,88.60
2017-12-13T08:50:03.256Z,88.41
2017-12-13T08:51:03.194Z,87.93
2017-12-13T08:52:03.134Z,87.74
2017-12-13T08:53:03.065Z,87.74
2017-12-13T08:54:02.992Z,88.22
2017-12-13T08:55:02.929Z,88.31
2017-12-13T08:56:02.867Z,87.74
2017-12-13T08:57:02.797Z,87.93
2017-12-13T08:58:02.730Z,87.55
2017-12-13T08:59:02.664Z,87.55
2017-12-13T09:00:02.655Z,88.12
2017-12-13T09:01:02.533Z,87.18
2017-12-13T09:02:02.473Z,87.08
2017-12-13T09:03:02.401Z,86.42
2017-12-13T09:04:02.341Z,86.52
2017-12-13T09:05:02.279Z,86.14
2017-12-13T09:06:02.212Z,86.80
2017-12-13T09:07:02.146Z,85.99
2017-12-13T09:08:02.074Z,86.37
2017-12-13T09:09:02.014Z,86.80
2017-12-13T09:10:01.952Z,86.66
2017-12-13T09:11:01.883Z,85.99
2017-12-13T09:12:01.819Z,86.18
2017-12-13T09:13:01.745Z,85.38
2017-12-13T09:14:01.687Z,85.52
2017-12-13T09:15:01.621Z,84.48
2017-12-13T09:16:01.558Z,85.61
2017-12-13T09:17:01.488Z,85.80
2017-12-13T09:18:01.425Z,85.61
2017-12-13T09:19:01.353Z,85.61
2017-12-13T09:20:01.287Z,85.24
2017-12-13T09:21:01.224Z,85.71
2017-12-13T09:22:01.161Z,85.33
2017-12-13T09:23:01.094Z,85.42
2017-12-13T09:24:01.032Z,84.01
2017-12-13T09:25:00.967Z,84.01
2017-12-13T09:26:00.900Z,84.10
2017-12-13T09:27:00.836Z,83.91
2017-12-13T09:28:00.771Z,84.29
2017-12-13T09:29:00.706Z,84.39
2017-12-13T09:30:00.633Z,83.72
2017-12-13T09:31:00.576Z,83.82
2017-12-13T09:32:00.516Z,83.44
2017-12-13T09:33:00.439Z,83.72
2017-12-13T09:34:00.372Z,83.53
2017-12-13T09:35:00.331Z,83.63
2017-12-13T09:36:00.242Z,84.01
2017-12-13T09:37:00.179Z,84.39
2017-12-13T09:38:00.117Z,84.20
2017-12-13T09:39:00.050Z,84.39
2017-12-13T09:39:59.980Z,84.29
2017-12-13T09:40:59.914Z,84.01
2017-12-13T09:41:59.894Z,83.82
2017-12-13T09:42:59.790Z,84.01
2017-12-13T09:43:59.719Z,83.82
2017-12-13T09:44:59.658Z,83.15
2017-12-13T09:45:59.587Z,82.02
2017-12-13T09:46:59.524Z,81.93
2017-12-13T09:47:59.464Z,82.68
2017-12-13T09:48:59.438Z,83.15
2017-12-13T09:49:59.332Z,83.72
2017-12-13T09:50:59.261Z,83.72
2017-12-13T09:51:59.196Z,82.68
2017-12-13T09:52:59.133Z,82.50
2017-12-13T09:53:59.071Z,81.93
2017-12-13T09:54:59.006Z,81.12
2017-12-13T09:55:58.943Z,81.93
2017-12-13T09:56:58.870Z,81.83
2017-12-13T09:57:58.811Z,82.02
2017-12-13T09:58:58.738Z,81.36
2017-12-13T09:59:58.673Z,82.25
2017-12-13T10:00:58.613Z,81.87
2017-12-13T10:01:58.548Z,81.21
2017-12-13T10:02:58.485Z,80.93
2017-12-13T10:03:58.419Z,79.88
2017-12-13T10:04:58.354Z,80.07
2017-12-13T10:05:58.282Z,81.02
2017-12-13T10:06:58.218Z,81.21
2017-12-13T10:07:58.156Z,81.21
2017-12-13T10:08:58.087Z,80.93
2017-12-13T10:09:58.023Z,79.88
2017-12-13T10:10:57.966Z,79.41
2017-12-13T10:11:57.898Z,78.85
2017-12-13T10:12:57.836Z,79.32
2017-12-13T10:13:57.769Z,79.50
2017-12-13T10:14:57.704Z,78.65
2017-12-13T10:15:57.633Z,78.27
2017-12-13T10:16:57.574Z,78.18
2017-12-13T10:17:57.509Z,77.51
2017-12-13T10:18:57.444Z,78.27
2017-12-13T10:19:57.379Z,77.61
2017-12-13T10:20:57.315Z,77.99
2017-12-13T10:21:57.252Z,77.70
2017-12-13T10:22:57.269Z,77.70
2017-12-13T10:23:57.114Z,77.80
2017-12-13T10:24:57.056Z,77.70
2017-12-13T10:25:56.985Z,77.33
2017-12-13T10:26:56.921Z,77.14
2017-12-13T10:27:56.856Z,77.65
2017-12-13T10:28:56.854Z,77.27
2017-12-13T10:29:56.726Z,76.23
2017-12-13T10:30:56.663Z,74.87
2017-12-13T10:31:56.603Z,75.09
2017-12-13T10:32:56.534Z,76.14
2017-12-13T10:33:56.474Z,75.19
2017-12-13T10:34:56.402Z,76.04
2017-12-13T10:35:56.340Z,75.57
2017-12-13T10:36:56.298Z,75.47
2017-12-13T10:37:56.215Z,75.09
2017-12-13T10:38:56.148Z,75.09
2017-12-13T10:39:56.095Z,75.19
2017-12-13T10:40:56.016Z,73.96
2017-12-13T10:41:55.959Z,73.96
2017-12-13T10:42:55.892Z,73.86
2017-12-13T10:43:55.828Z,72.82
2017-12-13T10:44:55.764Z,73.20
2017-12-13T10:45:55.698Z,73.39
2017-12-13T10:46:55.629Z,73.86
2017-12-13T10:47:55.572Z,73.68
2017-12-13T10:48:55.500Z,72.16
2017-12-13T10:49:55.437Z,72.63
2017-12-13T10:50:55.374Z,71.78
2017-12-13T10:51:55.312Z,72.25
2017-12-13T10:52:55.252Z,72.34
2017-12-13T10:53:55.185Z,72.53
2017-12-13T10:54:55.115Z,72.44
2017-12-13T10:55:55.056Z,72.82
2017-12-13T10:56:54.989Z,72.25
2017-12-13T10:57:54.928Z,71.88
2017-12-13T10:58:54.862Z,72.16
2017-12-13T10:59:54.803Z,72.16
2017-12-13T11:00:54.729Z,72.16
2017-12-13T11:01:54.670Z,73.20
2017-12-13T11:02:54.608Z,71.97
2017-12-13T11:03:54.536Z,71.97
2017-12-13T11:04:54.474Z,72.82
2017-12-13T11:05:54.415Z,73.68
2017-12-13T11:06:54.357Z,73.11
2017-12-13T11:07:54.291Z,73.58
2017-12-13T11:08:54.224Z,72.34
2017-12-13T11:09:54.160Z,71.69
2017-12-13T11:10:54.086Z,72.53
2017-12-13T11:11:54.033Z,72.16
2017-12-13T11:12:53.964Z,72.25
2017-12-13T11:13:53.893Z,72.53
2017-12-13T11:14:53.852Z,71.40
2017-12-13T11:15:53.775Z,71.59
2017-12-13T11:16:53.702Z,71.40
2017-12-13T11:17:53.642Z,71.12
2017-12-13T11:18:53.581Z,71.12
2017-12-13T11:19:53.517Z,71.40
2017-12-13T11:20:53.453Z,70.87
2017-12-13T11:21:53.383Z,71.40
2017-12-13T11:22:53.321Z,70.64
2017-12-13T11:23:53.260Z,70.64
2017-12-13T11:24:53.195Z,71.02
2017-12-13T11:25:53.134Z,71.21
2017-12-13T11:26:53.065Z,71.40
2017-12-13T11:27:53.001Z,71.40
2017-12-13T11:28:52.944Z,71.02
2017-12-13T11:29:52.872Z,71.69
2017-12-13T11:30:52.815Z,71.97
2017-12-13T11:31:52.752Z,71.59
2017-12-13T11:32:52.686Z,71.59
2017-12-13T11:33:52.618Z,71.59
2017-12-13T11:34:52.569Z,71.88
2017-12-13T11:35:52.489Z,70.93
2017-12-13T11:36:52.433Z,70.45
2017-12-13T11:37:52.363Z,70.64
2017-12-13T11:38:52.306Z,71.12
2017-12-13T11:39:52.240Z,70.64
2017-12-13T11:40:52.172Z,70.93
2017-12-13T11:41:52.113Z,70.55
2017-12-13T11:42:52.044Z,70.26
2017-12-13T11:43:51.982Z,71.69
2017-12-13T11:44:51.917Z,70.64
2017-12-13T11:45:51.872Z,71.12
2017-12-13T11:46:51.789Z,70.45
2017-12-13T11:47:51.730Z,70.74
2017-12-13T11:48:51.661Z,70.83
2017-12-13T11:49:51.600Z,71.12
2017-12-13T11:50:51.548Z,70.74
2017-12-13T11:51:51.480Z,71.21
2017-12-13T11:52:51.406Z,70.64
2017-12-13T11:53:51.358Z,70.17
2017-12-13T11:54:51.282Z,69.89
2017-12-13T11:55:51.218Z,69.98
2017-12-13T11:56:51.160Z,69.89
2017-12-13T11:57:51.105Z,70.97
2017-12-13T11:58:51.034Z,69.89
2017-12-13T11:59:50.970Z,69.13
2017-12-13T12:00:50.930Z,69.41
2017-12-13T12:01:50.839Z,69.89
2017-12-13T12:02:50.844Z,69.89
2017-12-13T12:03:50.719Z,69.51
2017-12-13T12:04:50.655Z,69.79
2017-12-13T12:05:50.586Z,69.70
2017-12-13T12:06:50.529Z,69.89
2017-12-13T12:07:50.466Z,71.59
2017-12-13T12:08:50.408Z,71.34
2017-12-13T12:09:50.337Z,71.62
2017-12-13T12:10:50.270Z,70.45
2017-12-13T12:11:50.220Z,71.40
2017-12-13T12:12:50.149Z,71.31
2017-12-13T12:13:50.084Z,71.40
2017-12-13T12:14:50.016Z,71.59
2017-12-13T12:15:49.986Z,71.59
2017-12-13T12:16:49.950Z,71.78
2017-12-13T12:17:49.826Z,72.16
2017-12-13T12:18:49.763Z,71.88
2017-12-13T12:19:49.706Z,72.16
2017-12-13T12:20:49.637Z,71.97
2017-12-13T12:21:49.573Z,72.16
2017-12-13T12:22:49.516Z,72.82
2017-12-13T12:23:49.447Z,72.82
2017-12-13T12:24:49.383Z,73.58
2017-12-13T12:25:49.329Z,73.20
2017-12-13T12:26:49.263Z,73.30
2017-12-13T12:27:49.200Z,73.58
2017-12-13T12:28:49.136Z,73.39
2017-12-13T12:29:49.074Z,73.30
2017-12-13T12:30:49.002Z,73.96
2017-12-13T12:31:48.939Z,74.05
2017-12-13T12:32:48.882Z,73.39
2017-12-13T12:33:48.821Z,72.44
2017-12-13T12:34:48.754Z,72.53
2017-12-13T12:35:48.692Z,72.44
2017-12-13T12:36:48.623Z,73.01
2017-12-13T12:37:48.568Z,73.77
2017-12-13T12:38:48.503Z,74.15
2017-12-13T12:39:48.434Z,73.68
2017-12-13T12:40:48.377Z,73.20
2017-12-13T12:41:48.312Z,72.82
2017-12-13T12:42:48.249Z,73.58
2017-12-13T12:43:48.182Z,73.96
2017-12-13T12:44:48.122Z,73.86
2017-12-13T12:45:48.055Z,73.58
2017-12-13T12:46:47.996Z,72.92
2017-12-13T12:47:47.933Z,73.39
2017-12-13T12:48:47.863Z,73.86
2017-12-13T12:49:47.805Z,74.24
2017-12-13T12:50:47.774Z,73.77
2017-12-13T12:51:47.673Z,73.58